createdAt,value
2016-09-06T00:00:05.553Z,91.2
2016-09-06T00:00:26.137Z,91.1
2016-09-06T00:00:46.735Z,91.1
2016-09-06T00:01:07.312Z,91.1
2016-09-06T00:01:27.862Z,91.4
2016-09-06T00:01:48.405Z,91.2
2016-09-06T00:02:08.977Z,91
2016-09-06T00:02:29.525Z,91
2016-09-06T00:02:50.093Z,91.1
2016-09-06T00:03:10.650Z,91.1
2016-09-06T00:03:31.172Z,91.1
2016-09-06T00:03:51.744Z,90.7
2016-09-06T00:04:12.346Z,90.7
2016-09-06T00:04:32.916Z,90.9
2016-09-06T00:04:53.496Z,90.8
2016-09-06T00:05:14.064Z,90.7
2016-09-06T00:05:34.631Z,91.2
2016-09-06T00:05:55.180Z,90.7
2016-09-06T00:06:15.768Z,90.7
2016-09-06T00:06:36.352Z,91
2016-09-06T00:06:56.943Z,91.1
2016-09-06T00:07:17.525Z,91.1
2016-09-06T00:07:38.095Z,91.1
2016-09-06T00:07:58.651Z,90.6
2016-09-06T00:08:19.224Z,90.6
2016-09-06T00:08:39.823Z,90.7
2016-09-06T00:09:00.392Z,90.6
2016-09-06T00:09:20.938Z,90.7
2016-09-06T00:09:41.506Z,90.9
2016-09-06T00:10:02.086Z,91.2
2016-09-06T00:10:22.653Z,90.9
2016-09-06T00:10:43.231Z,91.2
2016-09-06T00:11:03.798Z,90.9
2016-09-06T00:11:24.363Z,90.6
2016-09-06T00:11:44.920Z,90.6
2016-09-06T00:12:05.537Z,90.6
2016-09-06T00:12:26.111Z,90.9
2016-09-06T00:12:46.645Z,90.7
2016-09-06T00:13:07.213Z,90.8
2016-09-06T00:13:27.794Z,90.9
2016-09-06T00:13:48.367Z,90.8
2016-09-06T00:14:08.936Z,90.6
2016-09-06T00:14:29.510Z,90.6
2016-09-06T00:14:50.062Z,90.6
2016-09-06T00:15:10.629Z,90.7
2016-09-06T00:15:31.197Z,90.6
2016-09-06T00:15:51.787Z,90.9
2016-09-06T00:16:12.373Z,90.1
2016-09-06T00:16:32.959Z,90
2016-09-06T00:16:53.531Z,90.2
2016-09-06T00:17:14.100Z,90.6
2016-09-06T00:17:34.645Z,90.8
2016-09-06T00:17:55.194Z,90.3
2016-09-06T00:18:15.756Z,90.6
2016-09-06T00:18:36.314Z,90.8
2016-09-06T00:18:56.903Z,90.4
2016-09-06T00:19:17.486Z,90.8
2016-09-06T00:19:38.043Z,90.6
2016-09-06T00:19:58.618Z,90.8
2016-09-06T00:20:19.199Z,90.5
2016-09-06T00:20:39.778Z,90.4
2016-09-06T00:21:00.341Z,90.5
2016-09-06T00:21:20.905Z,90.6
2016-09-06T00:21:41.443Z,91.3
2016-09-06T00:22:02.022Z,90.9
2016-09-06T00:22:22.613Z,91.2
2016-09-06T00:22:43.181Z,90.6
2016-09-06T00:23:03.716Z,90.6
2016-09-06T00:23:24.281Z,90.7
2016-09-06T00:23:44.864Z,90.5
2016-09-06T00:24:05.417Z,90.5
2016-09-06T00:24:25.971Z,90.6
2016-09-06T00:24:46.541Z,90.7
2016-09-06T00:25:07.138Z,90.6
2016-09-06T00:25:27.712Z,90.5
2016-09-06T00:25:48.267Z,90.6
2016-09-06T00:26:08.842Z,90.6
2016-09-06T00:26:29.423Z,90.8
2016-09-06T00:26:49.981Z,90.6
2016-09-06T00:27:10.537Z,90.6
2016-09-06T00:27:31.101Z,90.4
2016-09-06T00:27:51.664Z,90.6
2016-09-06T00:28:12.240Z,90.8
2016-09-06T00:28:32.821Z,90.8
2016-09-06T00:28:53.392Z,91.1
2016-09-06T00:29:13.983Z,91
2016-09-06T00:29:34.558Z,90.9
2016-09-06T00:29:55.123Z,91.3
2016-09-06T00:30:15.672Z,90.7
2016-09-06T00:30:36.226Z,90.9
2016-09-06T00:30:56.780Z,90.6
2016-09-06T00:31:17.356Z,90.7
2016-09-06T00:31:37.936Z,90.4
2016-09-06T00:31:58.504Z,91.1
2016-09-06T00:32:19.036Z,91.2
2016-09-06T00:32:39.582Z,90.8
2016-09-06T00:33:00.133Z,91.3
2016-09-06T00:33:20.721Z,90.9
2016-09-06T00:33:41.281Z,90.9
2016-09-06T00:34:01.852Z,91.2
2016-09-06T00:34:22.438Z,91.1
2016-09-06T00:34:42.991Z,90.6
2016-09-06T00:35:03.564Z,90.7
2016-09-06T00:35:24.125Z,90.7
2016-09-06T00:35:44.700Z,90.6
2016-09-06T00:36:05.258Z,90.7
2016-09-06T00:36:25.839Z,90.6
2016-09-06T00:36:46.401Z,90.6
2016-09-06T00:37:06.963Z,90.2
2016-09-06T00:37:27.538Z,90.1
2016-09-06T00:37:48.105Z,90.6
2016-09-06T00:38:08.678Z,90.3
2016-09-06T00:38:29.247Z,90
2016-09-06T00:38:49.806Z,90.2
2016-09-06T00:39:10.349Z,90.1
2016-09-06T00:39:30.933Z,90.2
2016-09-06T00:39:51.513Z,90.2
2016-09-06T00:40:12.047Z,90.2
2016-09-06T00:40:32.588Z,90.8
2016-09-06T00:40:53.135Z,90.9
2016-09-06T00:41:13.703Z,90.5
2016-09-06T00:41:34.271Z,90.6
2016-09-06T00:41:54.836Z,90.6
2016-09-06T00:42:15.415Z,90.6
2016-09-06T00:42:35.965Z,90.8
2016-09-06T00:42:56.551Z,90.7
2016-09-06T00:43:17.113Z,91
2016-09-06T00:43:37.694Z,90.9
2016-09-06T00:43:58.261Z,90.7
2016-09-06T00:44:18.836Z,90.9
2016-09-06T00:44:39.408Z,90.5
2016-09-06T00:44:59.957Z,90.6
2016-09-06T00:45:20.528Z,90.6
2016-09-06T00:45:41.096Z,90.6
2016-09-06T00:46:01.667Z,90.7
2016-09-06T00:46:22.229Z,90.6
2016-09-06T00:46:42.775Z,90.6
2016-09-06T00:47:03.359Z,90.4
2016-09-06T00:47:23.943Z,90.7
2016-09-06T00:47:44.524Z,90.9
2016-09-06T00:48:05.093Z,90.6
2016-09-06T00:48:25.659Z,90.8
2016-09-06T00:48:46.236Z,90.4
2016-09-06T00:49:06.791Z,90.7
2016-09-06T00:49:27.357Z,90.6
2016-09-06T00:49:47.933Z,90.7
2016-09-06T00:50:08.489Z,90.8
2016-09-06T00:50:29.023Z,90.7
2016-09-06T00:50:49.594Z,90.6
2016-09-06T00:51:10.170Z,91.3
2016-09-06T00:51:30.733Z,90.6
2016-09-06T00:51:51.314Z,91.1
2016-09-06T00:52:11.894Z,90.7
2016-09-06T00:52:32.457Z,90.9
2016-09-06T00:52:53.041Z,91
2016-09-06T00:53:13.612Z,90.8
2016-09-06T00:53:34.163Z,91.1
2016-09-06T00:53:54.741Z,90.7
2016-09-06T00:54:15.325Z,91.4
2016-09-06T00:54:35.860Z,91
2016-09-06T00:54:56.453Z,91.4
2016-09-06T00:55:16.997Z,91.1
2016-09-06T00:55:37.566Z,91
2016-09-06T00:55:58.129Z,90.5
2016-09-06T00:56:18.708Z,91
2016-09-06T00:56:39.268Z,90.9
2016-09-06T00:56:59.819Z,90.7
2016-09-06T00:57:20.406Z,90.7
2016-09-06T00:57:40.989Z,91.1
2016-09-06T00:58:01.571Z,90.6
2016-09-06T00:58:22.136Z,91.1
2016-09-06T00:58:42.697Z,91.2
2016-09-06T00:59:03.290Z,90.8
2016-09-06T00:59:23.846Z,90.6
2016-09-06T00:59:44.423Z,90.8
2016-09-06T01:00:05.009Z,90.7
2016-09-06T01:00:25.584Z,90.8
2016-09-06T01:00:46.174Z,91.2
2016-09-06T01:01:06.746Z,91.1
2016-09-06T01:01:27.300Z,90.9
2016-09-06T01:01:47.870Z,90.9
2016-09-06T01:02:08.483Z,90.7
2016-09-06T01:02:29.024Z,90.7
2016-09-06T01:02:49.585Z,91
2016-09-06T01:03:10.155Z,91.1
2016-09-06T01:03:30.734Z,91.2
2016-09-06T01:03:51.273Z,91.1
2016-09-06T01:04:11.883Z,91.2
2016-09-06T01:04:32.439Z,90.7
2016-09-06T01:04:53.017Z,91
2016-09-06T01:05:13.597Z,91.1
2016-09-06T01:05:34.193Z,90.7
2016-09-06T01:05:54.757Z,90.8
2016-09-06T01:06:15.300Z,90.8
2016-09-06T01:06:35.886Z,90.6
2016-09-06T01:06:56.468Z,91
2016-09-06T01:07:17.037Z,90.8
2016-09-06T01:07:37.597Z,90.9
2016-09-06T01:07:58.169Z,91.4
2016-09-06T01:08:18.751Z,91.4
2016-09-06T01:08:39.322Z,91.2
2016-09-06T01:08:59.895Z,91.1
2016-09-06T01:09:20.470Z,91
2016-09-06T01:09:41.020Z,91.1
2016-09-06T01:10:01.632Z,91
2016-09-06T01:10:22.182Z,90.8
2016-09-06T01:10:42.746Z,90.9
2016-09-06T01:11:03.316Z,90.9
2016-09-06T01:11:23.879Z,91
2016-09-06T01:11:44.456Z,91
2016-09-06T01:12:05.025Z,91
2016-09-06T01:12:25.600Z,90.9
2016-09-06T01:12:46.161Z,91
2016-09-06T01:13:06.699Z,91
2016-09-06T01:13:27.274Z,90.7
2016-09-06T01:13:47.847Z,91
2016-09-06T01:14:08.409Z,90.7
2016-09-06T01:14:28.985Z,91.1
2016-09-06T01:14:49.543Z,90.7
2016-09-06T01:15:10.116Z,91
2016-09-06T01:15:30.694Z,90.7
2016-09-06T01:15:51.280Z,90.8
2016-09-06T01:16:11.840Z,91
2016-09-06T01:16:32.413Z,90.7
2016-09-06T01:16:53.443Z,90.9
2016-09-06T01:17:14.019Z,91.1
2016-09-06T01:17:34.588Z,91
2016-09-06T01:17:55.165Z,90.8
2016-09-06T01:18:15.729Z,90.9
2016-09-06T01:18:36.270Z,91
2016-09-06T01:18:56.831Z,91.1
2016-09-06T01:19:17.408Z,91.1
2016-09-06T01:19:37.978Z,91
2016-09-06T01:19:58.560Z,91.2
2016-09-06T01:20:19.143Z,91.1
2016-09-06T01:20:39.702Z,91.2
2016-09-06T01:21:00.331Z,91.3
2016-09-06T01:21:20.886Z,91
2016-09-06T01:21:41.454Z,91.1
2016-09-06T01:22:02.052Z,91.1
2016-09-06T01:22:22.627Z,91
2016-09-06T01:22:43.189Z,91.5
2016-09-06T01:23:03.745Z,91.2
2016-09-06T01:23:24.302Z,91.3
2016-09-06T01:23:44.876Z,91.1
2016-09-06T01:24:05.444Z,90.9
2016-09-06T01:24:26.010Z,91
2016-09-06T01:24:46.585Z,91
2016-09-06T01:25:07.247Z,91.1
2016-09-06T01:25:27.817Z,91
2016-09-06T01:25:48.391Z,91.1
2016-09-06T01:26:08.977Z,91
2016-09-06T01:26:29.550Z,91
2016-09-06T01:26:50.098Z,91.2
2016-09-06T01:27:10.673Z,90.8
2016-09-06T01:27:31.259Z,90.8
2016-09-06T01:27:51.837Z,90.9
2016-09-06T01:28:12.445Z,91
2016-09-06T01:28:33.014Z,90.9
2016-09-06T01:28:53.621Z,90.9
2016-09-06T01:29:14.186Z,91
2016-09-06T01:29:34.741Z,91
2016-09-06T01:29:55.336Z,90.9
2016-09-06T01:30:15.921Z,90.9
2016-09-06T01:30:36.525Z,90.9
2016-09-06T01:30:57.087Z,91
2016-09-06T01:31:17.659Z,91.4
2016-09-06T01:31:38.237Z,91.2
2016-09-06T01:31:58.811Z,91
2016-09-06T01:32:19.413Z,91.2
2016-09-06T01:32:39.994Z,91.2
2016-09-06T01:33:00.577Z,90.9
2016-09-06T01:33:21.158Z,91
2016-09-06T01:33:41.743Z,91.2
2016-09-06T01:34:02.310Z,91.1
2016-09-06T01:34:22.883Z,91.2
2016-09-06T01:34:43.488Z,91.5
2016-09-06T01:35:04.059Z,91.7
2016-09-06T01:35:24.619Z,91.7
2016-09-06T01:35:45.191Z,91.7
2016-09-06T01:36:05.737Z,91.4
2016-09-06T01:36:26.301Z,91.5
2016-09-06T01:36:46.870Z,91.5
2016-09-06T01:37:07.457Z,91.4
2016-09-06T01:37:28.031Z,91.5
2016-09-06T01:37:48.591Z,91.6
2016-09-06T01:38:09.171Z,91.5
2016-09-06T01:38:29.753Z,91.4
2016-09-06T01:38:50.341Z,91.6
2016-09-06T01:39:10.892Z,91.2
2016-09-06T01:39:31.443Z,91.3
2016-09-06T01:39:52.015Z,91.4
2016-09-06T01:40:12.572Z,91.3
2016-09-06T01:40:33.137Z,91.3
2016-09-06T01:40:55.269Z,91.5
2016-09-06T01:41:15.837Z,91.7
2016-09-06T01:41:36.390Z,91.6
2016-09-06T01:41:56.953Z,91.7
2016-09-06T01:42:17.530Z,91.6
2016-09-06T01:42:38.074Z,91.6
2016-09-06T01:42:58.656Z,91.7
2016-09-06T01:43:19.216Z,91.4
2016-09-06T01:43:39.763Z,91.9
2016-09-06T01:44:00.331Z,91.4
2016-09-06T01:44:20.891Z,91.2
2016-09-06T01:44:41.433Z,91.1
2016-09-06T01:45:01.995Z,91.6
2016-09-06T01:45:22.621Z,91.9
2016-09-06T01:45:43.174Z,91.8
2016-09-06T01:46:03.737Z,91.7
2016-09-06T01:46:24.317Z,91.8
2016-09-06T01:46:44.905Z,91.8
2016-09-06T01:47:05.511Z,91.8
2016-09-06T01:47:26.133Z,91.6
2016-09-06T01:47:46.702Z,91.5
2016-09-06T01:48:07.244Z,91.4
2016-09-06T01:48:27.803Z,91.4
2016-09-06T01:48:48.348Z,91.5
2016-09-06T01:49:08.944Z,91.5
2016-09-06T01:49:29.522Z,91.5
2016-09-06T01:49:50.094Z,91.9
2016-09-06T01:50:10.665Z,91.4
2016-09-06T01:50:31.239Z,91.9
2016-09-06T01:50:51.800Z,91.9
2016-09-06T01:51:12.359Z,91.5
2016-09-06T01:51:32.926Z,91.7
2016-09-06T01:51:53.485Z,91.7
2016-09-06T01:52:14.060Z,91.9
2016-09-06T01:52:34.646Z,91.7
2016-09-06T01:52:55.219Z,91.5
2016-09-06T01:53:15.789Z,91.5
2016-09-06T01:53:36.358Z,91.7
2016-09-06T01:53:56.924Z,91.7
2016-09-06T01:54:17.487Z,91.5
2016-09-06T01:54:38.063Z,91.5
2016-09-06T01:54:58.647Z,91.7
2016-09-06T01:55:19.199Z,91.5
2016-09-06T01:55:39.763Z,91.5
2016-09-06T01:56:00.336Z,91.5
2016-09-06T01:56:20.894Z,91.3
2016-09-06T01:56:41.478Z,91.3
2016-09-06T01:57:02.080Z,91.5
2016-09-06T01:57:22.655Z,91.3
2016-09-06T01:57:43.211Z,91.7
2016-09-06T01:58:03.786Z,91.5
2016-09-06T01:58:24.352Z,91.6
2016-09-06T01:58:44.917Z,91.7
2016-09-06T01:59:05.515Z,91.7
2016-09-06T01:59:26.104Z,91.6
2016-09-06T01:59:46.683Z,91.7
2016-09-06T02:00:07.241Z,91.7
2016-09-06T02:00:27.824Z,91.3
2016-09-06T02:00:48.392Z,91.4
2016-09-06T02:01:08.966Z,91.5
2016-09-06T02:01:29.573Z,91.6
2016-09-06T02:01:50.146Z,91.5
2016-09-06T02:02:10.712Z,91.3
2016-09-06T02:02:31.265Z,91.5
2016-09-06T02:02:51.858Z,91.7
2016-09-06T02:03:12.424Z,91.4
2016-09-06T02:03:33.009Z,91.5
2016-09-06T02:03:53.578Z,91.6
2016-09-06T02:04:14.134Z,91.5
2016-09-06T02:04:34.693Z,91.7
2016-09-06T02:04:55.277Z,91.7
2016-09-06T02:05:15.851Z,91.6
2016-09-06T02:05:36.420Z,91.6
2016-09-06T02:05:56.999Z,91.6
2016-09-06T02:06:17.565Z,91.7
2016-09-06T02:06:38.142Z,91.6
2016-09-06T02:06:58.706Z,91.6
2016-09-06T02:07:19.283Z,91.9
2016-09-06T02:07:39.841Z,91.6
2016-09-06T02:08:00.416Z,91.4
2016-09-06T02:08:20.953Z,91.9
2016-09-06T02:08:41.521Z,91.4
2016-09-06T02:09:02.085Z,91.2
2016-09-06T02:09:22.648Z,91.8
2016-09-06T02:09:43.206Z,91.3
2016-09-06T02:10:03.778Z,91.2
2016-09-06T02:10:24.358Z,91.5
2016-09-06T02:10:44.924Z,91.7
2016-09-06T02:11:05.506Z,91.5
2016-09-06T02:11:26.079Z,91.4
2016-09-06T02:11:46.673Z,91.5
2016-09-06T02:12:07.253Z,91.6
2016-09-06T02:12:27.841Z,91.6
2016-09-06T02:12:48.413Z,91.5
2016-09-06T02:13:08.991Z,91.6
2016-09-06T02:13:29.571Z,91.5
2016-09-06T02:13:50.167Z,91.3
2016-09-06T02:14:10.746Z,91.7
2016-09-06T02:14:31.314Z,91.6
2016-09-06T02:14:51.886Z,91.3
2016-09-06T02:15:12.451Z,91.5
2016-09-06T02:15:33.049Z,91.4
2016-09-06T02:15:53.603Z,91.4
2016-09-06T02:16:14.170Z,91.4
2016-09-06T02:16:34.730Z,91.4
2016-09-06T02:16:55.316Z,91.7
2016-09-06T02:17:15.894Z,91.7
2016-09-06T02:17:36.460Z,91.7
2016-09-06T02:17:57.026Z,91.3
2016-09-06T02:18:17.608Z,91.3
2016-09-06T02:18:38.178Z,91.4
2016-09-06T02:18:58.747Z,91.4
2016-09-06T02:19:19.332Z,91.3
2016-09-06T02:19:39.912Z,91.5
2016-09-06T02:20:00.493Z,91.5
2016-09-06T02:20:21.076Z,91.2
2016-09-06T02:20:41.642Z,91.7
2016-09-06T02:21:02.208Z,91.3
2016-09-06T02:21:22.785Z,91.4
2016-09-06T02:21:43.366Z,91.2
2016-09-06T02:22:03.920Z,91.5
2016-09-06T02:22:24.496Z,91.2
2016-09-06T02:22:45.060Z,91.3
2016-09-06T02:23:05.683Z,91.5
2016-09-06T02:23:26.262Z,91.4
2016-09-06T02:23:46.830Z,91.6
2016-09-06T02:24:07.395Z,91.3
2016-09-06T02:24:27.948Z,91.2
2016-09-06T02:24:48.498Z,91.5
2016-09-06T02:25:09.070Z,91.5
2016-09-06T02:25:29.638Z,91.3
2016-09-06T02:25:50.199Z,91.7
2016-09-06T02:26:10.789Z,91.6
2016-09-06T02:26:31.357Z,91.3
2016-09-06T02:26:51.912Z,91.3
2016-09-06T02:27:12.472Z,91.6
2016-09-06T02:27:33.037Z,91.5
2016-09-06T02:27:53.599Z,91.7
2016-09-06T02:28:14.210Z,91.5
2016-09-06T02:28:34.762Z,91.5
2016-09-06T02:28:55.332Z,91.3
2016-09-06T02:29:15.898Z,91.7
2016-09-06T02:29:36.456Z,91.6
2016-09-06T02:29:57.024Z,91.4
2016-09-06T02:30:17.588Z,91.4
2016-09-06T02:30:38.147Z,91.6
2016-09-06T02:30:58.723Z,91.6
2016-09-06T02:31:19.311Z,91.5
2016-09-06T02:31:39.880Z,91.6
2016-09-06T02:32:00.454Z,91.5
2016-09-06T02:32:21.032Z,91.5
2016-09-06T02:32:41.620Z,91.7
2016-09-06T02:33:02.187Z,91.5
2016-09-06T02:33:22.773Z,91.8
2016-09-06T02:33:43.351Z,91.3
2016-09-06T02:34:03.925Z,91.4
2016-09-06T02:34:24.499Z,91.4
2016-09-06T02:34:45.070Z,91.4
2016-09-06T02:35:05.628Z,91.7
2016-09-06T02:35:26.190Z,91.8
2016-09-06T02:35:46.755Z,91.1
2016-09-06T02:36:07.361Z,91.7
2016-09-06T02:36:27.938Z,91.1
2016-09-06T02:36:48.486Z,91.5
2016-09-06T02:37:09.078Z,91.2
2016-09-06T02:37:29.652Z,91
2016-09-06T02:37:50.218Z,91.2
2016-09-06T02:38:10.834Z,91.2
2016-09-06T02:38:31.389Z,91.2
2016-09-06T02:38:51.954Z,91.1
2016-09-06T02:39:12.517Z,91.4
2016-09-06T02:39:33.084Z,91.2
2016-09-06T02:39:53.698Z,91.2
2016-09-06T02:40:14.269Z,91.6
2016-09-06T02:40:34.846Z,91.3
2016-09-06T02:40:55.430Z,91.7
2016-09-06T02:41:16.009Z,91.2
2016-09-06T02:41:36.576Z,91.2
2016-09-06T02:41:57.144Z,91.3
2016-09-06T02:42:17.704Z,91.5
2016-09-06T02:42:38.263Z,91.6
2016-09-06T02:42:58.824Z,91.6
2016-09-06T02:43:19.403Z,91.2
2016-09-06T02:43:39.980Z,91.3
2016-09-06T02:44:00.554Z,91.2
2016-09-06T02:44:21.146Z,91.3
2016-09-06T02:44:41.721Z,91.1
2016-09-06T02:45:02.290Z,91.3
2016-09-06T02:45:22.830Z,91.2
2016-09-06T02:45:43.404Z,91.3
2016-09-06T02:46:03.970Z,91.3
2016-09-06T02:46:24.565Z,90.9
2016-09-06T02:46:45.137Z,91.1
2016-09-06T02:47:05.714Z,91.4
2016-09-06T02:47:26.302Z,91.5
2016-09-06T02:47:46.875Z,91.1
2016-09-06T02:48:07.424Z,91.3
2016-09-06T02:48:28.014Z,91.1
2016-09-06T02:48:48.588Z,91.1
2016-09-06T02:49:09.165Z,90.9
2016-09-06T02:49:29.721Z,91.5
2016-09-06T02:49:50.298Z,91.3
2016-09-06T02:50:10.862Z,91.1
2016-09-06T02:50:31.452Z,91.4
2016-09-06T02:50:52.053Z,91
2016-09-06T02:51:12.639Z,91
2016-09-06T02:51:33.202Z,91.4
2016-09-06T02:51:53.776Z,91.1
2016-09-06T02:52:14.363Z,91
2016-09-06T02:52:34.912Z,91.4
2016-09-06T02:52:55.473Z,91
2016-09-06T02:53:16.059Z,91.2
2016-09-06T02:53:36.633Z,91.1
2016-09-06T02:53:57.221Z,91.4
2016-09-06T02:54:17.800Z,91.2
2016-09-06T02:54:38.372Z,91.5
2016-09-06T02:54:58.947Z,91.3
2016-09-06T02:55:19.533Z,91.4
2016-09-06T02:55:40.105Z,90.9
2016-09-06T02:56:00.694Z,91.2
2016-09-06T02:56:21.288Z,91
2016-09-06T02:56:41.871Z,91.3
2016-09-06T02:57:02.445Z,91.1
2016-09-06T02:57:22.983Z,91.2
2016-09-06T02:57:43.547Z,91.8
2016-09-06T02:58:04.120Z,91.5
2016-09-06T02:58:24.661Z,91.1
2016-09-06T02:58:45.250Z,91.1
2016-09-06T02:59:05.812Z,91.1
2016-09-06T02:59:26.354Z,91.2
2016-09-06T02:59:46.943Z,91
2016-09-06T03:00:07.530Z,91.2
2016-09-06T03:00:28.121Z,91.3
2016-09-06T03:00:48.770Z,91.2
2016-09-06T03:01:09.349Z,91.2
2016-09-06T03:01:29.912Z,91.1
2016-09-06T03:01:50.499Z,91.3
2016-09-06T03:02:11.041Z,90.8
2016-09-06T03:02:31.591Z,91.1
2016-09-06T03:02:52.157Z,91.3
2016-09-06T03:03:12.733Z,91.2
2016-09-06T03:03:33.313Z,91.5
2016-09-06T03:03:53.889Z,91.1
2016-09-06T03:04:14.467Z,91
2016-09-06T03:04:35.054Z,91.1
2016-09-06T03:04:55.633Z,90.8
2016-09-06T03:05:16.217Z,90.7
2016-09-06T03:05:36.788Z,90.8
2016-09-06T03:05:57.378Z,90.8
2016-09-06T03:06:17.951Z,90.9
2016-09-06T03:06:38.540Z,90.8
2016-09-06T03:06:59.103Z,90.8
2016-09-06T03:07:19.657Z,91
2016-09-06T03:07:40.217Z,91
2016-09-06T03:08:00.772Z,91.2
2016-09-06T03:08:21.329Z,90.9
2016-09-06T03:08:41.900Z,91.1
2016-09-06T03:09:02.453Z,91
2016-09-06T03:09:23.059Z,91
2016-09-06T03:09:43.641Z,91.1
2016-09-06T03:10:04.197Z,91.3
2016-09-06T03:10:24.793Z,91.4
2016-09-06T03:10:45.355Z,91.2
2016-09-06T03:11:05.917Z,91.2
2016-09-06T03:11:26.513Z,91.1
2016-09-06T03:11:47.086Z,91.1
2016-09-06T03:12:07.654Z,91.1
2016-09-06T03:12:28.206Z,91.1
2016-09-06T03:12:48.780Z,91.1
2016-09-06T03:13:09.354Z,91.2
2016-09-06T03:13:29.943Z,91.1
2016-09-06T03:13:50.539Z,91.7
2016-09-06T03:14:11.103Z,91.8
2016-09-06T03:14:31.681Z,91.8
2016-09-06T03:14:52.261Z,91.7
2016-09-06T03:15:12.833Z,91.7
2016-09-06T03:15:33.393Z,91.6
2016-09-06T03:15:53.951Z,91.5
2016-09-06T03:16:14.509Z,91.6
2016-09-06T03:16:35.071Z,91.5
2016-09-06T03:16:55.665Z,91.6
2016-09-06T03:17:16.266Z,91.6
2016-09-06T03:17:36.826Z,91.7
2016-09-06T03:17:57.395Z,91.5
2016-09-06T03:18:17.950Z,91.5
2016-09-06T03:18:38.509Z,91.4
2016-09-06T03:18:59.069Z,91.6
2016-09-06T03:19:19.654Z,91.7
2016-09-06T03:19:40.248Z,91.5
2016-09-06T03:20:00.814Z,91.4
2016-09-06T03:20:21.371Z,91.4
2016-09-06T03:20:41.992Z,91.7
2016-09-06T03:21:02.573Z,91.9
2016-09-06T03:21:23.164Z,91.1
2016-09-06T03:21:43.750Z,91.3
2016-09-06T03:22:04.434Z,91.8
2016-09-06T03:22:25.003Z,91.2
2016-09-06T03:22:45.545Z,91.7
2016-09-06T03:23:06.103Z,91.2
2016-09-06T03:23:26.688Z,91.9
2016-09-06T03:23:47.279Z,91.9
2016-09-06T03:24:07.860Z,91.6
2016-09-06T03:24:28.413Z,91.7
2016-09-06T03:24:49.025Z,91.5
2016-09-06T03:25:09.604Z,91.6
2016-09-06T03:25:30.197Z,91.5
2016-09-06T03:25:50.789Z,91.4
2016-09-06T03:26:11.350Z,91.5
2016-09-06T03:26:31.901Z,91.7
2016-09-06T03:26:52.464Z,91.5
2016-09-06T03:27:13.041Z,91.5
2016-09-06T03:27:33.638Z,91.7
2016-09-06T03:27:54.205Z,91.4
2016-09-06T03:28:14.759Z,91.6
2016-09-06T03:28:35.322Z,91.7
2016-09-06T03:28:55.896Z,91.6
2016-09-06T03:29:16.463Z,91.5
2016-09-06T03:29:37.072Z,91.5
2016-09-06T03:29:57.656Z,91.4
2016-09-06T03:30:18.214Z,91.7
2016-09-06T03:30:38.772Z,91.7
2016-09-06T03:30:59.346Z,91.8
2016-09-06T03:31:19.919Z,91.9
2016-09-06T03:31:40.496Z,91.4
2016-09-06T03:32:01.088Z,91.5
2016-09-06T03:32:21.624Z,91.9
2016-09-06T03:32:42.188Z,91.7
2016-09-06T03:33:02.758Z,91.7
2016-09-06T03:33:23.307Z,91.2
2016-09-06T03:33:43.885Z,91.1
2016-09-06T03:34:04.443Z,91
2016-09-06T03:34:25.027Z,91.3
2016-09-06T03:34:45.555Z,91.4
2016-09-06T03:35:06.133Z,91.3
2016-09-06T03:35:26.709Z,91
2016-09-06T03:35:47.280Z,91.1
2016-09-06T03:36:07.856Z,91.1
2016-09-06T03:36:28.412Z,91.4
2016-09-06T03:36:48.989Z,91
2016-09-06T03:37:09.577Z,91.5
2016-09-06T03:37:30.157Z,91.1
2016-09-06T03:37:50.703Z,91.2
2016-09-06T03:38:11.272Z,91.4
2016-09-06T03:38:31.828Z,91.1
2016-09-06T03:38:52.395Z,90.9
2016-09-06T03:39:12.974Z,90.9
2016-09-06T03:39:33.550Z,90.9
2016-09-06T03:39:54.104Z,91
2016-09-06T03:40:14.675Z,90.9
2016-09-06T03:40:35.242Z,91
2016-09-06T03:40:55.804Z,90.9
2016-09-06T03:41:16.375Z,91
2016-09-06T03:41:36.946Z,90.9
2016-09-06T03:41:57.512Z,91.2
2016-09-06T03:42:18.083Z,91
2016-09-06T03:42:38.659Z,90.8
2016-09-06T03:42:59.228Z,90.9
2016-09-06T03:43:19.813Z,90.8
2016-09-06T03:43:40.382Z,91
2016-09-06T03:44:00.935Z,91
2016-09-06T03:44:21.504Z,90.9
2016-09-06T03:44:42.062Z,91
2016-09-06T03:45:02.641Z,91
2016-09-06T03:45:23.196Z,90.8
2016-09-06T03:45:43.775Z,90.7
2016-09-06T03:46:04.342Z,90.9
2016-09-06T03:46:24.916Z,90.8
2016-09-06T03:46:45.505Z,90.8
2016-09-06T03:47:06.072Z,90.9
2016-09-06T03:47:26.679Z,90.8
2016-09-06T03:47:47.225Z,91
2016-09-06T03:48:07.771Z,91.1
2016-09-06T03:48:28.346Z,90.8
2016-09-06T03:48:48.913Z,90.8
2016-09-06T03:49:09.501Z,91
2016-09-06T03:49:30.080Z,91
2016-09-06T03:49:50.662Z,90.9
2016-09-06T03:50:11.212Z,91
2016-09-06T03:50:31.770Z,91
2016-09-06T03:50:52.380Z,90.9
2016-09-06T03:51:12.950Z,90.9
2016-09-06T03:51:33.512Z,90.9
2016-09-06T03:51:54.093Z,90.9
2016-09-06T03:52:14.641Z,91
2016-09-06T03:52:35.205Z,91
2016-09-06T03:52:55.808Z,90.9
2016-09-06T03:53:16.386Z,90.8
2016-09-06T03:53:36.983Z,90.8
2016-09-06T03:53:57.549Z,90.5
2016-09-06T03:54:18.157Z,91.1
2016-09-06T03:54:38.728Z,91.1
2016-09-06T03:54:59.304Z,91.1
2016-09-06T03:55:19.882Z,91.2
2016-09-06T03:55:40.468Z,90.9
2016-09-06T03:56:01.049Z,91
2016-09-06T03:56:21.619Z,90.9
2016-09-06T03:56:42.227Z,91
2016-09-06T03:57:02.806Z,91
2016-09-06T03:57:23.376Z,91
2016-09-06T03:57:43.933Z,90.9
2016-09-06T03:58:04.493Z,91
2016-09-06T03:58:25.143Z,91
2016-09-06T03:58:45.713Z,91
2016-09-06T03:59:06.285Z,90.8
2016-09-06T03:59:26.843Z,91
2016-09-06T03:59:47.380Z,90.9
2016-09-06T04:00:07.955Z,91
2016-09-06T04:00:28.531Z,91
2016-09-06T04:00:49.101Z,91
2016-09-06T04:01:09.654Z,91
2016-09-06T04:01:30.253Z,90.9
2016-09-06T04:01:50.814Z,90.9
2016-09-06T04:02:11.394Z,91.2
2016-09-06T04:02:31.948Z,90.9
2016-09-06T04:02:52.530Z,90.9
2016-09-06T04:03:13.099Z,91.2
2016-09-06T04:03:33.660Z,91
2016-09-06T04:03:54.231Z,90.7
2016-09-06T04:04:14.828Z,91
2016-09-06T04:04:35.410Z,91
2016-09-06T04:04:55.986Z,90.9
2016-09-06T04:05:16.580Z,91
2016-09-06T04:05:37.159Z,90.9
2016-09-06T04:05:57.725Z,91.2
2016-09-06T04:06:18.317Z,91.1
2016-09-06T04:06:38.884Z,91.1
2016-09-06T04:06:59.463Z,91.1
2016-09-06T04:07:20.049Z,90.4
2016-09-06T04:07:40.602Z,91.2
2016-09-06T04:08:01.159Z,90.7
2016-09-06T04:08:21.718Z,90.3
2016-09-06T04:08:42.297Z,90.4
2016-09-06T04:09:02.881Z,91.2
2016-09-06T04:09:23.431Z,91
2016-09-06T04:09:44.025Z,90.6
2016-09-06T04:10:04.593Z,91.1
2016-09-06T04:10:25.159Z,90.7
2016-09-06T04:10:45.795Z,91.1
2016-09-06T04:11:06.395Z,91.1
2016-09-06T04:11:26.979Z,91.1
2016-09-06T04:11:47.558Z,90.4
2016-09-06T04:12:08.142Z,91
2016-09-06T04:12:28.723Z,91
2016-09-06T04:12:49.297Z,90.6
2016-09-06T04:13:09.844Z,91
2016-09-06T04:13:30.408Z,91.1
2016-09-06T04:13:51.011Z,90.5
2016-09-06T04:14:11.617Z,90.7
2016-09-06T04:14:32.212Z,90.8
2016-09-06T04:14:52.770Z,90.8
2016-09-06T04:15:13.325Z,90.7
2016-09-06T04:15:33.883Z,90.7
2016-09-06T04:15:54.456Z,90.7
2016-09-06T04:16:15.018Z,90.7
2016-09-06T04:16:35.595Z,90.7
2016-09-06T04:16:56.139Z,90.9
2016-09-06T04:17:16.714Z,90.8
2016-09-06T04:17:37.292Z,90.3
2016-09-06T04:17:57.860Z,90.3
2016-09-06T04:18:18.458Z,90.7
2016-09-06T04:18:39.044Z,90.7
2016-09-06T04:18:59.616Z,90.5
2016-09-06T04:19:20.181Z,90.8
2016-09-06T04:19:40.748Z,90.6
2016-09-06T04:20:01.323Z,90.8
2016-09-06T04:20:21.910Z,90.5
2016-09-06T04:20:42.471Z,90.8
2016-09-06T04:21:03.006Z,90.6
2016-09-06T04:21:23.554Z,90.7
2016-09-06T04:21:44.128Z,90.7
2016-09-06T04:22:04.689Z,90.6
2016-09-06T04:22:25.280Z,90.7
2016-09-06T04:22:45.853Z,90.6
2016-09-06T04:23:06.430Z,90.6
2016-09-06T04:23:26.980Z,90.7
2016-09-06T04:23:47.546Z,90.7
2016-09-06T04:24:08.195Z,90.7
2016-09-06T04:24:28.737Z,90.7
2016-09-06T04:24:49.281Z,90.5
2016-09-06T04:25:09.834Z,90.7
2016-09-06T04:25:30.403Z,91
2016-09-06T04:25:50.974Z,90.3
2016-09-06T04:26:11.566Z,90.1
2016-09-06T04:26:32.149Z,90.4
2016-09-06T04:26:52.704Z,90.3
2016-09-06T04:27:13.263Z,90.3
2016-09-06T04:27:33.843Z,90.9
2016-09-06T04:27:54.526Z,90.3
2016-09-06T04:28:15.111Z,90
2016-09-06T04:28:35.689Z,90.1
2016-09-06T04:28:56.256Z,90.7
2016-09-06T04:29:16.834Z,90.5
2016-09-06T04:29:37.424Z,90.4
2016-09-06T04:29:58.022Z,90.2
2016-09-06T04:30:18.622Z,90.8
2016-09-06T04:30:39.187Z,90.6
2016-09-06T04:30:59.777Z,90.6
2016-09-06T04:31:20.343Z,90.6
2016-09-06T04:31:40.941Z,89.9
2016-09-06T04:32:01.513Z,90
2016-09-06T04:32:22.088Z,90.5
2016-09-06T04:32:42.751Z,90.7
2016-09-06T04:33:03.285Z,90.5
2016-09-06T04:33:23.859Z,90.5
2016-09-06T04:33:45.302Z,90.7
2016-09-06T04:34:05.885Z,90.5
2016-09-06T04:34:26.451Z,90.5
2016-09-06T04:34:47.018Z,90.5
2016-09-06T04:35:07.600Z,90.2
2016-09-06T04:35:28.158Z,90.7
2016-09-06T04:35:48.724Z,90.3